sensor_id;sensor_type;location;lat;lon;timestamp;P1;durP1;ratioP1;P2;durP2;ratioP2
50569;SDS011;36525;49.398;7.614;2023-06-22T00:00:22;8.02;;;6.65;;
50569;SDS011;36525;49.398;7.614;2023-06-22T00:02:48;9.82;;;6.57;;
50569;SDS011;36525;49.398;7.614;2023-06-22T00:05:15;6.97;;;5.80;;
50569;SDS011;36525;49.398;7.614;2023-06-22T00:07:42;8.10;;;7.22;;
50569;SDS011;36525;49.398;7.614;2023-06-22T00:10:10;9.48;;;7.13;;
50569;SDS011;36525;49.398;7.614;2023-06-22T00:12:37;9.20;;;5.53;;
50569;SDS011;36525;49.398;7.614;2023-06-22T00:15:04;9.68;;;7.15;;
50569;SDS011;36525;49.398;7.614;2023-06-22T00:17:32;12.38;;;7.15;;
50569;SDS011;36525;49.398;7.614;2023-06-22T00:19:59;11.02;;;7.32;;
50569;SDS011;36525;49.398;7.614;2023-06-22T00:22:26;9.70;;;5.90;;
50569;SDS011;36525;49.398;7.614;2023-06-22T00:24:56;8.00;;;6.18;;
50569;SDS011;36525;49.398;7.614;2023-06-22T00:27:23;10.75;;;6.03;;
50569;SDS011;36525;49.398;7.614;2023-06-22T00:29:50;6.85;;;5.38;;
50569;SDS011;36525;49.398;7.614;2023-06-22T00:32:18;9.75;;;5.65;;
50569;SDS011;36525;49.398;7.614;2023-06-22T00:34:45;7.50;;;5.70;;
50569;SDS011;36525;49.398;7.614;2023-06-22T00:37:12;9.52;;;6.10;;
50569;SDS011;36525;49.398;7.614;2023-06-22T00:39:39;13.80;;;7.80;;
50569;SDS011;36525;49.398;7.614;2023-06-22T00:42:06;7.88;;;6.18;;
50569;SDS011;36525;49.398;7.614;2023-06-22T00:44:34;10.55;;;7.30;;
50569;SDS011;36525;49.398;7.614;2023-06-22T00:47:02;10.65;;;7.38;;
50569;SDS011;36525;49.398;7.614;2023-06-22T00:49:30;7.82;;;6.28;;
50569;SDS011;36525;49.398;7.614;2023-06-22T00:51:57;8.82;;;6.70;;
50569;SDS011;36525;49.398;7.614;2023-06-22T00:54:25;10.10;;;6.75;;
50569;SDS011;36525;49.398;7.614;2023-06-22T00:56:53;8.73;;;7.22;;
50569;SDS011;36525;49.398;7.614;2023-06-22T00:59:23;10.45;;;6.82;;
50569;SDS011;36525;49.398;7.614;2023-06-22T01:01:52;9.75;;;7.50;;
50569;SDS011;36525;49.398;7.614;2023-06-22T01:04:23;10.52;;;7.18;;
50569;SDS011;36525;49.398;7.614;2023-06-22T01:07:51;9.30;;;7.80;;
50569;SDS011;36525;49.398;7.614;2023-06-22T01:09:59;8.02;;;7.10;;
50569;SDS011;36525;49.398;7.614;2023-06-22T01:12:45;8.48;;;6.82;;
50569;SDS011;36525;49.398;7.614;2023-06-22T01:15:28;8.55;;;7.65;;
50569;SDS011;36525;49.398;7.614;2023-06-22T01:18:03;10.55;;;7.25;;
50569;SDS011;36525;49.398;7.614;2023-06-22T01:20:32;9.48;;;6.35;;
50569;SDS011;36525;49.398;7.614;2023-06-22T01:23:05;9.82;;;7.75;;
50569;SDS011;36525;49.398;7.614;2023-06-22T01:29:27;9.45;;;7.43;;
50569;SDS011;36525;49.398;7.614;2023-06-22T01:31:56;10.05;;;7.88;;
50569;SDS011;36525;49.398;7.614;2023-06-22T01:34:24;8.35;;;7.07;;
50569;SDS011;36525;49.398;7.614;2023-06-22T01:36:52;9.07;;;6.57;;
50569;SDS011;36525;49.398;7.614;2023-06-22T01:39:20;8.93;;;7.18;;
50569;SDS011;36525;49.398;7.614;2023-06-22T01:41:48;9.35;;;8.30;;
50569;SDS011;36525;49.398;7.614;2023-06-22T01:44:16;8.43;;;7.30;;
50569;SDS011;36525;49.398;7.614;2023-06-22T01:46:44;7.85;;;6.30;;
50569;SDS011;36525;49.398;7.614;2023-06-22T01:49:12;9.38;;;7.43;;
50569;SDS011;36525;49.398;7.614;2023-06-22T01:51:39;9.88;;;7.60;;
50569;SDS011;36525;49.398;7.614;2023-06-22T01:54:06;8.65;;;6.75;;
50569;SDS011;36525;49.398;7.614;2023-06-22T01:56:34;9.00;;;7.70;;
50569;SDS011;36525;49.398;7.614;2023-06-22T02:01:57;10.20;;;7.95;;
50569;SDS011;36525;49.398;7.614;2023-06-22T02:04:42;8.70;;;7.28;;
50569;SDS011;36525;49.398;7.614;2023-06-22T02:07:17;9.85;;;8.07;;
50569;SDS011;36525;49.398;7.614;2023-06-22T02:09:45;9.30;;;7.47;;
50569;SDS011;36525;49.398;7.614;2023-06-22T02:12:17;11.85;;;7.28;;
50569;SDS011;36525;49.398;7.614;2023-06-22T02:14:49;9.98;;;6.53;;
50569;SDS011;36525;49.398;7.614;2023-06-22T02:17:18;9.55;;;7.25;;
50569;SDS011;36525;49.398;7.614;2023-06-22T02:19:45;8.38;;;7.03;;
50569;SDS011;36525;49.398;7.614;2023-06-22T02:22:12;10.30;;;7.70;;
50569;SDS011;36525;49.398;7.614;2023-06-22T02:24:40;9.98;;;8.10;;
50569;SDS011;36525;49.398;7.614;2023-06-22T02:27:07;10.13;;;8.20;;
50569;SDS011;36525;49.398;7.614;2023-06-22T02:29:34;8.82;;;7.93;;
50569;SDS011;36525;49.398;7.614;2023-06-22T02:32:01;11.75;;;8.98;;
50569;SDS011;36525;49.398;7.614;2023-06-22T02:34:31;13.63;;;10.35;;
50569;SDS011;36525;49.398;7.614;2023-06-22T02:37:03;12.27;;;9.55;;
50569;SDS011;36525;49.398;7.614;2023-06-22T02:39:32;11.13;;;9.93;;
50569;SDS011;36525;49.398;7.614;2023-06-22T02:41:59;10.27;;;9.05;;
50569;SDS011;36525;49.398;7.614;2023-06-22T02:44:27;11.18;;;9.43;;
50569;SDS011;36525;49.398;7.614;2023-06-22T02:46:54;14.30;;;9.90;;
50569;SDS011;36525;49.398;7.614;2023-06-22T02:49:21;11.43;;;9.65;;
50569;SDS011;36525;49.398;7.614;2023-06-22T02:51:49;15.10;;;10.73;;
50569;SDS011;36525;49.398;7.614;2023-06-22T02:54:16;9.90;;;8.70;;
50569;SDS011;36525;49.398;7.614;2023-06-22T02:56:44;12.63;;;10.27;;
50569;SDS011;36525;49.398;7.614;2023-06-22T02:59:11;12.73;;;10.45;;
50569;SDS011;36525;49.398;7.614;2023-06-22T03:01:38;13.00;;;10.45;;
50569;SDS011;36525;49.398;7.614;2023-06-22T03:04:11;10.63;;;9.32;;
50569;SDS011;36525;49.398;7.614;2023-06-22T03:06:40;11.75;;;9.27;;
50569;SDS011;36525;49.398;7.614;2023-06-22T03:09:07;11.93;;;10.20;;
50569;SDS011;36525;49.398;7.614;2023-06-22T03:11:34;13.52;;;10.77;;
50569;SDS011;36525;49.398;7.614;2023-06-22T03:14:01;12.88;;;10.43;;
50569;SDS011;36525;49.398;7.614;2023-06-22T03:16:28;12.63;;;10.98;;
50569;SDS011;36525;49.398;7.614;2023-06-22T03:18:55;12.98;;;10.82;;
50569;SDS011;36525;49.398;7.614;2023-06-22T03:21:23;14.40;;;10.77;;
50569;SDS011;36525;49.398;7.614;2023-06-22T03:23:50;15.90;;;10.82;;
50569;SDS011;36525;49.398;7.614;2023-06-22T03:26:17;11.90;;;10.60;;
50569;SDS011;36525;49.398;7.614;2023-06-22T03:28:46;13.90;;;10.98;;
50569;SDS011;36525;49.398;7.614;2023-06-22T03:31:13;13.65;;;10.57;;
50569;SDS011;36525;49.398;7.614;2023-06-22T03:33:40;12.30;;;11.00;;
50569;SDS011;36525;49.398;7.614;2023-06-22T03:36:08;12.10;;;9.93;;
50569;SDS011;36525;49.398;7.614;2023-06-22T03:38:35;11.63;;;9.80;;
50569;SDS011;36525;49.398;7.614;2023-06-22T03:41:01;12.95;;;10.82;;
50569;SDS011;36525;49.398;7.614;2023-06-22T03:43:29;12.18;;;10.85;;
50569;SDS011;36525;49.398;7.614;2023-06-22T03:45:56;14.55;;;10.05;;
50569;SDS011;36525;49.398;7.614;2023-06-22T03:48:23;14.88;;;10.90;;
50569;SDS011;36525;49.398;7.614;2023-06-22T03:50:50;12.93;;;10.77;;
50569;SDS011;36525;49.398;7.614;2023-06-22T03:53:17;12.45;;;10.52;;
50569;SDS011;36525;49.398;7.614;2023-06-22T03:55:48;12.07;;;9.60;;
50569;SDS011;36525;49.398;7.614;2023-06-22T04:00:52;11.68;;;9.18;;
50569;SDS011;36525;49.398;7.614;2023-06-22T04:03:19;11.98;;;9.93;;
50569;SDS011;36525;49.398;7.614;2023-06-22T04:05:47;11.18;;;9.80;;
50569;SDS011;36525;49.398;7.614;2023-06-22T04:08:15;11.73;;;9.95;;
50569;SDS011;36525;49.398;7.614;2023-06-22T04:10:42;13.32;;;10.52;;
50569;SDS011;36525;49.398;7.614;2023-06-22T04:13:10;12.18;;;9.60;;
50569;SDS011;36525;49.398;7.614;2023-06-22T04:15:37;12.20;;;9.82;;
50569;SDS011;36525;49.398;7.614;2023-06-22T04:18:04;11.05;;;9.95;;
50569;SDS011;36525;49.398;7.614;2023-06-22T04:20:31;12.38;;;9.95;;
50569;SDS011;36525;49.398;7.614;2023-06-22T04:22:59;12.80;;;10.50;;
50569;SDS011;36525;49.398;7.614;2023-06-22T04:25:26;11.70;;;10.50;;
50569;SDS011;36525;49.398;7.614;2023-06-22T04:27:54;14.43;;;11.30;;
50569;SDS011;36525;49.398;7.614;2023-06-22T04:30:21;12.73;;;11.23;;
50569;SDS011;36525;49.398;7.614;2023-06-22T04:32:48;12.73;;;11.13;;
50569;SDS011;36525;49.398;7.614;2023-06-22T04:35:24;11.55;;;10.13;;
50569;SDS011;36525;49.398;7.614;2023-06-22T04:37:52;13.75;;;11.45;;
50569;SDS011;36525;49.398;7.614;2023-06-22T04:40:23;12.00;;;10.38;;
50569;SDS011;36525;49.398;7.614;2023-06-22T04:42:50;13.50;;;10.35;;
50569;SDS011;36525;49.398;7.614;2023-06-22T04:45:20;13.48;;;11.35;;
50569;SDS011;36525;49.398;7.614;2023-06-22T04:47:48;12.98;;;10.88;;
50569;SDS011;36525;49.398;7.614;2023-06-22T04:50:16;16.58;;;11.95;;
50569;SDS011;36525;49.398;7.614;2023-06-22T04:52:44;17.15;;;12.32;;
50569;SDS011;36525;49.398;7.614;2023-06-22T04:55:12;13.25;;;11.85;;
50569;SDS011;36525;49.398;7.614;2023-06-22T04:57:41;14.23;;;10.82;;
50569;SDS011;36525;49.398;7.614;2023-06-22T05:00:17;13.73;;;12.00;;
50569;SDS011;36525;49.398;7.614;2023-06-22T05:02:46;15.87;;;12.60;;
50569;SDS011;36525;49.398;7.614;2023-06-22T05:05:14;13.77;;;12.13;;
50569;SDS011;36525;49.398;7.614;2023-06-22T05:07:43;15.65;;;11.40;;
50569;SDS011;36525;49.398;7.614;2023-06-22T05:10:14;15.52;;;13.52;;
50569;SDS011;36525;49.398;7.614;2023-06-22T05:12:42;17.08;;;11.82;;
50569;SDS011;36525;49.398;7.614;2023-06-22T05:15:09;16.67;;;12.35;;
50569;SDS011;36525;49.398;7.614;2023-06-22T05:17:36;13.68;;;12.27;;
50569;SDS011;36525;49.398;7.614;2023-06-22T05:20:10;17.48;;;13.65;;
50569;SDS011;36525;49.398;7.614;2023-06-22T05:22:39;15.25;;;12.70;;
50569;SDS011;36525;49.398;7.614;2023-06-22T05:25:10;14.60;;;12.13;;
50569;SDS011;36525;49.398;7.614;2023-06-22T05:27:38;14.30;;;12.80;;
50569;SDS011;36525;49.398;7.614;2023-06-22T05:30:06;15.57;;;13.23;;
50569;SDS011;36525;49.398;7.614;2023-06-22T05:32:37;15.73;;;13.18;;
50569;SDS011;36525;49.398;7.614;2023-06-22T05:35:05;16.25;;;13.43;;
50569;SDS011;36525;49.398;7.614;2023-06-22T05:37:32;14.40;;;11.80;;
50569;SDS011;36525;49.398;7.614;2023-06-22T05:40:00;15.70;;;12.18;;
50569;SDS011;36525;49.398;7.614;2023-06-22T05:42:28;16.80;;;12.75;;
50569;SDS011;36525;49.398;7.614;2023-06-22T05:44:55;15.25;;;12.73;;
50569;SDS011;36525;49.398;7.614;2023-06-22T05:47:22;17.98;;;13.38;;
50569;SDS011;36525;49.398;7.614;2023-06-22T05:49:49;18.95;;;13.75;;
50569;SDS011;36525;49.398;7.614;2023-06-22T05:52:16;16.63;;;13.30;;
50569;SDS011;36525;49.398;7.614;2023-06-22T05:54:43;15.90;;;12.88;;
50569;SDS011;36525;49.398;7.614;2023-06-22T05:57:10;14.43;;;11.93;;
50569;SDS011;36525;49.398;7.614;2023-06-22T05:59:37;14.93;;;12.27;;
50569;SDS011;36525;49.398;7.614;2023-06-22T06:02:05;14.20;;;12.00;;
50569;SDS011;36525;49.398;7.614;2023-06-22T06:04:32;14.88;;;12.30;;
50569;SDS011;36525;49.398;7.614;2023-06-22T06:07:00;16.52;;;12.15;;
50569;SDS011;36525;49.398;7.614;2023-06-22T06:09:27;17.98;;;14.02;;
50569;SDS011;36525;49.398;7.614;2023-06-22T06:11:54;16.45;;;12.57;;
50569;SDS011;36525;49.398;7.614;2023-06-22T06:14:21;14.63;;;12.70;;
50569;SDS011;36525;49.398;7.614;2023-06-22T06:16:49;15.82;;;13.63;;
50569;SDS011;36525;49.398;7.614;2023-06-22T06:19:16;16.75;;;13.55;;
50569;SDS011;36525;49.398;7.614;2023-06-22T06:21:43;15.95;;;13.80;;
50569;SDS011;36525;49.398;7.614;2023-06-22T06:24:10;17.33;;;14.20;;
50569;SDS011;36525;49.398;7.614;2023-06-22T06:26:38;18.15;;;14.32;;
50569;SDS011;36525;49.398;7.614;2023-06-22T06:29:07;16.95;;;14.02;;
50569;SDS011;36525;49.398;7.614;2023-06-22T06:31:34;15.77;;;13.52;;
50569;SDS011;36525;49.398;7.614;2023-06-22T06:34:02;15.38;;;13.40;;
50569;SDS011;36525;49.398;7.614;2023-06-22T06:36:29;16.67;;;13.32;;
50569;SDS011;36525;49.398;7.614;2023-06-22T06:38:57;17.40;;;13.40;;
50569;SDS011;36525;49.398;7.614;2023-06-22T06:41:27;14.98;;;13.23;;
50569;SDS011;36525;49.398;7.614;2023-06-22T06:43:53;13.52;;;11.98;;
50569;SDS011;36525;49.398;7.614;2023-06-22T06:46:21;15.13;;;13.27;;
50569;SDS011;36525;49.398;7.614;2023-06-22T06:48:48;15.02;;;12.80;;
50569;SDS011;36525;49.398;7.614;2023-06-22T06:51:15;19.20;;;14.00;;
50569;SDS011;36525;49.398;7.614;2023-06-22T06:53:42;14.90;;;12.55;;
50569;SDS011;36525;49.398;7.614;2023-06-22T06:56:09;15.57;;;12.52;;
50569;SDS011;36525;49.398;7.614;2023-06-22T06:58:37;14.20;;;11.80;;
50569;SDS011;36525;49.398;7.614;2023-06-22T07:01:08;16.05;;;12.15;;
50569;SDS011;36525;49.398;7.614;2023-06-22T07:03:35;13.90;;;11.65;;
50569;SDS011;36525;49.398;7.614;2023-06-22T07:06:02;14.75;;;11.05;;
50569;SDS011;36525;49.398;7.614;2023-06-22T07:08:30;13.60;;;11.65;;
50569;SDS011;36525;49.398;7.614;2023-06-22T07:10:57;17.17;;;11.85;;
50569;SDS011;36525;49.398;7.614;2023-06-22T07:13:24;13.38;;;11.45;;
50569;SDS011;36525;49.398;7.614;2023-06-22T07:15:51;11.77;;;10.02;;
50569;SDS011;36525;49.398;7.614;2023-06-22T07:18:18;12.35;;;10.55;;
50569;SDS011;36525;49.398;7.614;2023-06-22T07:20:45;13.27;;;10.23;;
50569;SDS011;36525;49.398;7.614;2023-06-22T07:23:13;13.65;;;10.43;;
50569;SDS011;36525;49.398;7.614;2023-06-22T07:25:40;11.15;;;9.90;;
50569;SDS011;36525;49.398;7.614;2023-06-22T07:28:07;13.55;;;9.88;;
50569;SDS011;36525;49.398;7.614;2023-06-22T07:30:35;13.30;;;9.32;;
50569;SDS011;36525;49.398;7.614;2023-06-22T07:33:02;12.77;;;9.73;;
50569;SDS011;36525;49.398;7.614;2023-06-22T07:35:31;12.98;;;9.70;;
50569;SDS011;36525;49.398;7.614;2023-06-22T07:37:59;11.77;;;9.55;;
50569;SDS011;36525;49.398;7.614;2023-06-22T07:40:31;12.02;;;9.30;;
50569;SDS011;36525;49.398;7.614;2023-06-22T07:42:58;13.73;;;9.35;;
50569;SDS011;36525;49.398;7.614;2023-06-22T07:45:25;12.27;;;9.38;;
50569;SDS011;36525;49.398;7.614;2023-06-22T07:47:52;11.15;;;9.25;;
50569;SDS011;36525;49.398;7.614;2023-06-22T07:50:19;10.30;;;7.95;;
50569;SDS011;36525;49.398;7.614;2023-06-22T07:52:46;9.13;;;7.90;;
50569;SDS011;36525;49.398;7.614;2023-06-22T07:55:14;11.88;;;8.32;;
50569;SDS011;36525;49.398;7.614;2023-06-22T07:57:41;8.88;;;7.20;;
50569;SDS011;36525;49.398;7.614;2023-06-22T08:00:08;9.55;;;7.53;;
50569;SDS011;36525;49.398;7.614;2023-06-22T08:02:41;8.32;;;7.32;;
50569;SDS011;36525;49.398;7.614;2023-06-22T08:05:10;7.82;;;6.90;;
50569;SDS011;36525;49.398;7.614;2023-06-22T08:07:58;9.23;;;7.32;;
50569;SDS011;36525;49.398;7.614;2023-06-22T08:10:25;10.02;;;6.97;;
50569;SDS011;36525;49.398;7.614;2023-06-22T08:12:53;9.57;;;6.95;;
50569;SDS011;36525;49.398;7.614;2023-06-22T08:15:20;7.95;;;6.07;;
50569;SDS011;36525;49.398;7.614;2023-06-22T08:17:48;11.50;;;6.18;;
50569;SDS011;36525;49.398;7.614;2023-06-22T08:20:15;9.50;;;6.97;;
50569;SDS011;36525;49.398;7.614;2023-06-22T08:22:42;9.80;;;6.35;;
50569;SDS011;36525;49.398;7.614;2023-06-22T08:25:10;7.07;;;5.97;;
50569;SDS011;36525;49.398;7.614;2023-06-22T08:27:39;7.93;;;6.38;;
50569;SDS011;36525;49.398;7.614;2023-06-22T08:30:06;7.82;;;5.82;;
50569;SDS011;36525;49.398;7.614;2023-06-22T08:32:37;8.13;;;5.60;;
50569;SDS011;36525;49.398;7.614;2023-06-22T08:35:05;9.32;;;5.70;;
50569;SDS011;36525;49.398;7.614;2023-06-22T08:37:35;9.18;;;5.68;;
50569;SDS011;36525;49.398;7.614;2023-06-22T08:40:03;6.95;;;5.30;;
50569;SDS011;36525;49.398;7.614;2023-06-22T08:42:35;9.75;;;4.95;;
50569;SDS011;36525;49.398;7.614;2023-06-22T08:45:03;12.10;;;4.35;;
50569;SDS011;36525;49.398;7.614;2023-06-22T08:47:30;7.82;;;4.80;;
50569;SDS011;36525;49.398;7.614;2023-06-22T08:49:58;8.73;;;5.40;;
50569;SDS011;36525;49.398;7.614;2023-06-22T08:52:25;6.68;;;5.05;;
50569;SDS011;36525;49.398;7.614;2023-06-22T08:54:52;7.35;;;4.68;;
50569;SDS011;36525;49.398;7.614;2023-06-22T08:57:20;9.80;;;5.05;;
50569;SDS011;36525;49.398;7.614;2023-06-22T08:59:47;8.30;;;4.40;;
50569;SDS011;36525;49.398;7.614;2023-06-22T09:02:14;7.53;;;4.35;;
50569;SDS011;36525;49.398;7.614;2023-06-22T09:04:43;7.40;;;5.45;;
50569;SDS011;36525;49.398;7.614;2023-06-22T09:07:10;10.00;;;4.97;;
50569;SDS011;36525;49.398;7.614;2023-06-22T09:09:38;5.45;;;4.00;;
50569;SDS011;36525;49.398;7.614;2023-06-22T09:12:05;6.88;;;4.43;;
50569;SDS011;36525;49.398;7.614;2023-06-22T09:14:33;7.07;;;4.22;;
50569;SDS011;36525;49.398;7.614;2023-06-22T09:17:00;7.40;;;4.25;;
50569;SDS011;36525;49.398;7.614;2023-06-22T09:19:27;6.97;;;4.60;;
50569;SDS011;36525;49.398;7.614;2023-06-22T09:21:54;5.25;;;4.20;;
50569;SDS011;36525;49.398;7.614;2023-06-22T09:24:21;6.90;;;4.43;;
50569;SDS011;36525;49.398;7.614;2023-06-22T09:26:48;7.20;;;4.90;;
50569;SDS011;36525;49.398;7.614;2023-06-22T09:29:17;6.07;;;4.35;;
50569;SDS011;36525;49.398;7.614;2023-06-22T09:31:44;7.90;;;4.57;;
50569;SDS011;36525;49.398;7.614;2023-06-22T09:34:11;9.02;;;4.80;;
50569;SDS011;36525;49.398;7.614;2023-06-22T09:36:38;5.53;;;4.00;;
50569;SDS011;36525;49.398;7.614;2023-06-22T09:39:07;6.30;;;4.13;;
50569;SDS011;36525;49.398;7.614;2023-06-22T09:41:34;7.65;;;4.47;;
50569;SDS011;36525;49.398;7.614;2023-06-22T09:44:01;6.10;;;3.90;;
50569;SDS011;36525;49.398;7.614;2023-06-22T09:46:28;10.70;;;4.22;;
50569;SDS011;36525;49.398;7.614;2023-06-22T09:48:55;8.65;;;4.00;;
50569;SDS011;36525;49.398;7.614;2023-06-22T09:51:23;7.20;;;3.97;;
50569;SDS011;36525;49.398;7.614;2023-06-22T09:53:50;7.53;;;3.70;;
50569;SDS011;36525;49.398;7.614;2023-06-22T09:56:20;7.32;;;3.88;;
50569;SDS011;36525;49.398;7.614;2023-06-22T09:58:47;6.88;;;3.90;;
50569;SDS011;36525;49.398;7.614;2023-06-22T10:01:18;7.43;;;3.92;;
50569;SDS011;36525;49.398;7.614;2023-06-22T10:03:47;6.75;;;3.60;;
50569;SDS011;36525;49.398;7.614;2023-06-22T10:06:16;7.47;;;4.70;;
50569;SDS011;36525;49.398;7.614;2023-06-22T10:08:44;7.65;;;3.53;;
50569;SDS011;36525;49.398;7.614;2023-06-22T10:11:11;5.90;;;3.72;;
50569;SDS011;36525;49.398;7.614;2023-06-22T10:13:44;7.15;;;3.67;;
50569;SDS011;36525;49.398;7.614;2023-06-22T10:16:11;7.40;;;3.28;;
50569;SDS011;36525;49.398;7.614;2023-06-22T10:18:38;8.95;;;3.97;;
50569;SDS011;36525;49.398;7.614;2023-06-22T10:21:05;7.57;;;3.83;;
50569;SDS011;36525;49.398;7.614;2023-06-22T10:23:32;11.35;;;3.85;;
50569;SDS011;36525;49.398;7.614;2023-06-22T10:26:00;9.63;;;3.38;;
50569;SDS011;36525;49.398;7.614;2023-06-22T10:28:27;8.30;;;3.60;;
50569;SDS011;36525;49.398;7.614;2023-06-22T10:30:58;11.98;;;3.88;;
50569;SDS011;36525;49.398;7.614;2023-06-22T10:33:25;6.85;;;3.03;;
50569;SDS011;36525;49.398;7.614;2023-06-22T10:35:53;7.25;;;3.50;;
50569;SDS011;36525;49.398;7.614;2023-06-22T10:38:21;9.00;;;3.90;;
50569;SDS011;36525;49.398;7.614;2023-06-22T10:40:48;7.18;;;3.33;;
50569;SDS011;36525;49.398;7.614;2023-06-22T10:43:15;6.57;;;3.03;;
50569;SDS011;36525;49.398;7.614;2023-06-22T10:45:42;10.20;;;3.78;;
50569;SDS011;36525;49.398;7.614;2023-06-22T10:48:10;9.52;;;3.83;;
50569;SDS011;36525;49.398;7.614;2023-06-22T10:50:37;11.68;;;3.50;;
50569;SDS011;36525;49.398;7.614;2023-06-22T10:53:04;10.38;;;3.83;;
50569;SDS011;36525;49.398;7.614;2023-06-22T10:55:31;8.10;;;3.47;;
50569;SDS011;36525;49.398;7.614;2023-06-22T10:58:21;9.27;;;4.32;;
50569;SDS011;36525;49.398;7.614;2023-06-22T11:00:48;9.18;;;3.58;;
50569;SDS011;36525;49.398;7.614;2023-06-22T11:03:15;9.10;;;4.00;;
50569;SDS011;36525;49.398;7.614;2023-06-22T11:05:46;9.65;;;3.78;;
50569;SDS011;36525;49.398;7.614;2023-06-22T11:08:14;10.40;;;3.58;;
50569;SDS011;36525;49.398;7.614;2023-06-22T11:10:41;8.45;;;3.58;;
50569;SDS011;36525;49.398;7.614;2023-06-22T11:13:10;9.25;;;3.50;;
50569;SDS011;36525;49.398;7.614;2023-06-22T11:15:39;9.25;;;3.70;;
50569;SDS011;36525;49.398;7.614;2023-06-22T11:18:07;11.38;;;3.83;;
50569;SDS011;36525;49.398;7.614;2023-06-22T11:20:34;8.23;;;3.58;;
50569;SDS011;36525;49.398;7.614;2023-06-22T11:23:05;10.27;;;4.03;;
50569;SDS011;36525;49.398;7.614;2023-06-22T11:25:33;13.48;;;3.50;;
50569;SDS011;36525;49.398;7.614;2023-06-22T11:28:04;11.65;;;3.20;;
50569;SDS011;36525;49.398;7.614;2023-06-22T11:30:31;10.73;;;3.60;;
50569;SDS011;36525;49.398;7.614;2023-06-22T11:32:59;10.75;;;4.05;;
50569;SDS011;36525;49.398;7.614;2023-06-22T11:35:26;10.50;;;3.78;;
50569;SDS011;36525;49.398;7.614;2023-06-22T11:37:54;12.10;;;3.78;;
50569;SDS011;36525;49.398;7.614;2023-06-22T11:40:22;10.55;;;4.03;;
50569;SDS011;36525;49.398;7.614;2023-06-22T11:42:49;11.75;;;4.65;;
50569;SDS011;36525;49.398;7.614;2023-06-22T11:45:16;8.60;;;4.03;;
50569;SDS011;36525;49.398;7.614;2023-06-22T11:47:45;11.85;;;4.07;;
50569;SDS011;36525;49.398;7.614;2023-06-22T11:50:12;11.25;;;4.10;;
50569;SDS011;36525;49.398;7.614;2023-06-22T11:52:40;14.20;;;3.70;;
50569;SDS011;36525;49.398;7.614;2023-06-22T11:55:25;15.32;;;4.55;;
50569;SDS011;36525;49.398;7.614;2023-06-22T11:57:53;10.85;;;3.85;;
50569;SDS011;36525;49.398;7.614;2023-06-22T12:00:26;12.23;;;4.28;;
50569;SDS011;36525;49.398;7.614;2023-06-22T12:02:56;11.38;;;4.47;;
50569;SDS011;36525;49.398;7.614;2023-06-22T12:05:26;15.30;;;4.30;;
50569;SDS011;36525;49.398;7.614;2023-06-22T12:07:53;12.48;;;4.47;;
50569;SDS011;36525;49.398;7.614;2023-06-22T12:10:22;6.93;;;3.65;;
50569;SDS011;36525;49.398;7.614;2023-06-22T12:12:49;13.20;;;4.03;;
50569;SDS011;36525;49.398;7.614;2023-06-22T12:15:16;8.68;;;3.92;;
50569;SDS011;36525;49.398;7.614;2023-06-22T12:17:43;9.93;;;4.22;;
50569;SDS011;36525;49.398;7.614;2023-06-22T12:20:11;8.93;;;4.05;;
50569;SDS011;36525;49.398;7.614;2023-06-22T12:22:38;9.45;;;4.35;;
50569;SDS011;36525;49.398;7.614;2023-06-22T12:25:05;12.45;;;4.32;;
50569;SDS011;36525;49.398;7.614;2023-06-22T12:27:34;13.07;;;4.70;;
50569;SDS011;36525;49.398;7.614;2023-06-22T12:30:03;12.45;;;4.70;;
50569;SDS011;36525;49.398;7.614;2023-06-22T12:32:31;15.77;;;4.47;;
50569;SDS011;36525;49.398;7.614;2023-06-22T12:34:58;6.30;;;3.63;;
50569;SDS011;36525;49.398;7.614;2023-06-22T12:37:25;8.38;;;4.28;;
50569;SDS011;36525;49.398;7.614;2023-06-22T12:39:53;11.27;;;4.28;;
50569;SDS011;36525;49.398;7.614;2023-06-22T12:42:21;14.50;;;4.53;;
50569;SDS011;36525;49.398;7.614;2023-06-22T12:44:48;9.07;;;4.18;;
50569;SDS011;36525;49.398;7.614;2023-06-22T12:47:15;19.65;;;4.68;;
50569;SDS011;36525;49.398;7.614;2023-06-22T12:49:42;9.60;;;4.35;;
50569;SDS011;36525;49.398;7.614;2023-06-22T12:52:09;13.93;;;4.10;;
50569;SDS011;36525;49.398;7.614;2023-06-22T12:54:37;19.02;;;4.53;;
50569;SDS011;36525;49.398;7.614;2023-06-22T12:57:20;19.83;;;3.78;;
50569;SDS011;36525;49.398;7.614;2023-06-22T12:59:47;12.38;;;4.13;;
50569;SDS011;36525;49.398;7.614;2023-06-22T13:02:15;15.23;;;3.40;;
50569;SDS011;36525;49.398;7.614;2023-06-22T13:04:42;16.48;;;4.90;;
50569;SDS011;36525;49.398;7.614;2023-06-22T13:07:09;15.32;;;6.50;;
50569;SDS011;36525;49.398;7.614;2023-06-22T13:09:48;14.38;;;4.32;;
50569;SDS011;36525;49.398;7.614;2023-06-22T13:12:22;13.48;;;4.00;;
50569;SDS011;36525;49.398;7.614;2023-06-22T13:14:49;12.13;;;4.43;;
50569;SDS011;36525;49.398;7.614;2023-06-22T13:17:17;12.18;;;5.15;;
50569;SDS011;36525;49.398;7.614;2023-06-22T13:19:44;18.55;;;7.90;;
50569;SDS011;36525;49.398;7.614;2023-06-22T13:22:28;11.63;;;4.00;;
50569;SDS011;36525;49.398;7.614;2023-06-22T13:24:57;13.88;;;5.63;;
50569;SDS011;36525;49.398;7.614;2023-06-22T13:27:25;12.70;;;4.97;;
50569;SDS011;36525;49.398;7.614;2023-06-22T13:29:52;11.43;;;5.00;;
50569;SDS011;36525;49.398;7.614;2023-06-22T13:32:19;12.70;;;4.78;;
50569;SDS011;36525;49.398;7.614;2023-06-22T13:34:46;16.67;;;4.95;;
50569;SDS011;36525;49.398;7.614;2023-06-22T13:37:14;15.77;;;5.38;;
50569;SDS011;36525;49.398;7.614;2023-06-22T13:39:41;13.95;;;4.70;;
50569;SDS011;36525;49.398;7.614;2023-06-22T13:42:08;14.43;;;5.05;;
50569;SDS011;36525;49.398;7.614;2023-06-22T13:44:35;21.20;;;5.95;;
50569;SDS011;36525;49.398;7.614;2023-06-22T13:47:02;11.90;;;4.50;;
50569;SDS011;36525;49.398;7.614;2023-06-22T13:49:31;14.98;;;5.20;;
50569;SDS011;36525;49.398;7.614;2023-06-22T13:51:58;13.15;;;5.25;;
50569;SDS011;36525;49.398;7.614;2023-06-22T13:54:26;18.75;;;5.55;;
50569;SDS011;36525;49.398;7.614;2023-06-22T13:56:56;20.65;;;7.00;;
50569;SDS011;36525;49.398;7.614;2023-06-22T13:59:23;17.45;;;7.70;;
50569;SDS011;36525;49.398;7.614;2023-06-22T14:01:50;24.08;;;10.07;;
50569;SDS011;36525;49.398;7.614;2023-06-22T14:04:17;17.52;;;5.15;;
50569;SDS011;36525;49.398;7.614;2023-06-22T14:06:44;17.38;;;6.68;;
50569;SDS011;36525;49.398;7.614;2023-06-22T14:09:12;18.02;;;3.97;;
50569;SDS011;36525;49.398;7.614;2023-06-22T14:11:39;17.88;;;4.70;;
50569;SDS011;36525;49.398;7.614;2023-06-22T14:14:06;15.15;;;3.55;;
50569;SDS011;36525;49.398;7.614;2023-06-22T14:16:33;11.23;;;3.88;;
50569;SDS011;36525;49.398;7.614;2023-06-22T14:19:00;11.63;;;3.78;;
50569;SDS011;36525;49.398;7.614;2023-06-22T14:21:27;14.95;;;3.63;;
50569;SDS011;36525;49.398;7.614;2023-06-22T14:23:54;18.98;;;4.93;;
50569;SDS011;36525;49.398;7.614;2023-06-22T14:26:22;14.38;;;3.95;;
50569;SDS011;36525;49.398;7.614;2023-06-22T14:28:49;15.02;;;4.15;;
50569;SDS011;36525;49.398;7.614;2023-06-22T14:31:17;15.45;;;4.05;;
50569;SDS011;36525;49.398;7.614;2023-06-22T14:33:48;11.75;;;3.58;;
50569;SDS011;36525;49.398;7.614;2023-06-22T14:36:16;16.63;;;4.00;;
50569;SDS011;36525;49.398;7.614;2023-06-22T14:38:44;22.98;;;5.15;;
50569;SDS011;36525;49.398;7.614;2023-06-22T14:41:13;27.15;;;4.60;;
50569;SDS011;36525;49.398;7.614;2023-06-22T14:43:47;16.25;;;5.20;;
50569;SDS011;36525;49.398;7.614;2023-06-22T14:46:17;16.58;;;3.88;;
50569;SDS011;36525;49.398;7.614;2023-06-22T14:48:46;16.98;;;4.45;;
50569;SDS011;36525;49.398;7.614;2023-06-22T14:51:13;17.25;;;5.13;;